Time;durP1;ratioP1;P1;durP2;ratioP2;P2;SDS_P1;SDS_P2;PMS_P1;PMS_P2;Temp;Humidity;BMP_temperature;BMP_pressure;BME280_temperature;BME280_humidity;BME280_pressure;Samples;Min_cycle;Max_cycle;Signal;HPM_P1;HPM_P2
2023/06/25 00:01:30;;;;;;;12.10;4.85;;;15.70;99.90;;;;;;7345772;32;20111;-56
2023/06/25 00:05:32;;;;;;;7.20;4.57;;;15.60;99.90;;;;;;7343634;32;20208;-55
2023/06/25 00:09:33;;;;;;;5.95;4.78;;;15.60;99.90;;;;;;7344809;32;20182;-55
2023/06/25 00:13:35;;;;;;;6.50;4.82;;;15.50;99.90;;;;;;7340944;32;20108;-57
2023/06/25 00:17:39;;;;;;;9.02;5.37;;;15.50;99.90;;;;;;7342480;32;20107;-56
2023/06/25 00:21:41;;;;;;;6.78;4.65;;;15.50;99.90;;;;;;7341622;32;20221;-55
2023/06/25 00:25:42;;;;;;;6.37;4.78;;;15.50;99.90;;;;;;7341046;32;20142;-56
2023/06/25 00:29:44;;;;;;;10.02;5.10;;;15.40;99.90;;;;;;7345738;32;20838;-56
2023/06/25 00:33:49;;;;;;;7.65;5.00;;;15.40;99.90;;;;;;7343584;32;20568;-57
2023/06/25 00:37:56;;;;;;;6.32;4.53;;;15.40;99.90;;;;;;7343217;32;20135;-56
2023/06/25 00:42:00;;;;;;;6.95;5.05;;;15.30;99.90;;;;;;7339191;32;20265;-55
2023/06/25 00:46:02;;;;;;;8.25;5.07;;;15.30;99.90;;;;;;7343500;32;20225;-56
2023/06/25 00:50:05;;;;;;;7.10;5.18;;;15.30;99.90;;;;;;7342755;32;20209;-55
2023/06/25 00:54:07;;;;;;;7.37;4.57;;;15.30;99.90;;;;;;7343153;32;20377;-57
2023/06/25 00:58:08;;;;;;;8.60;5.00;;;15.30;99.90;;;;;;7343803;32;20583;-56
2023/06/25 01:02:43;;;;;;;7.12;5.15;;;15.30;99.90;;;;;;7344920;32;20160;-56
2023/06/25 01:06:48;;;;;;;8.65;5.00;;;15.30;99.90;;;;;;7339100;32;20170;-56
2023/06/25 01:10:50;;;;;;;6.35;4.60;;;15.30;99.90;;;;;;7344744;32;20684;-56
2023/06/25 01:14:52;;;;;;;6.87;5.25;;;15.30;99.90;;;;;;7338668;32;20135;-56
2023/06/25 01:18:56;;;;;;;9.52;5.00;;;15.20;99.90;;;;;;7342510;32;20251;-55
2023/06/25 01:23:06;;;;;;;10.20;4.95;;;15.20;99.90;;;;;;7345417;32;20135;-56
2023/06/25 01:27:08;;;;;;;7.70;4.97;;;15.20;99.90;;;;;;7347437;32;20145;-55
2023/06/25 01:31:10;;;;;;;7.37;4.93;;;15.20;99.90;;;;;;7345753;32;20178;-55
2023/06/25 01:35:13;;;;;;;10.55;4.97;;;15.10;99.90;;;;;;7347655;32;20474;-55
2023/06/25 01:39:19;;;;;;;7.60;4.37;;;15.10;99.90;;;;;;7350031;32;20171;-56
2023/06/25 01:43:21;;;;;;;9.05;5.28;;;15.10;99.90;;;;;;7346117;32;20573;-56
2023/06/25 01:47:22;;;;;;;5.75;4.80;;;15.10;99.90;;;;;;7348319;32;20107;-55
2023/06/25 01:51:26;;;;;;;8.40;5.30;;;15.00;99.90;;;;;;7345975;32;20131;-56
2023/06/25 01:55:28;;;;;;;6.30;4.80;;;15.00;99.90;;;;;;7349430;32;20107;-56
2023/06/25 01:59:34;;;;;;;9.70;5.10;;;14.90;99.90;;;;;;7346116;32;20194;-55
2023/06/25 02:03:35;;;;;;;7.05;5.05;;;15.00;99.90;;;;;;7347883;32;20515;-56
2023/06/25 02:07:37;;;;;;;8.57;5.07;;;14.90;99.90;;;;;;7344126;32;20578;-56
2023/06/25 02:11:39;;;;;;;8.20;4.97;;;14.90;99.90;;;;;;7343754;32;20568;-56
2023/06/25 02:15:41;;;;;;;7.40;5.37;;;14.90;99.90;;;;;;7346874;32;20215;-55
2023/06/25 02:19:43;;;;;;;8.40;5.25;;;14.90;99.90;;;;;;7349679;32;20493;-55
2023/06/25 02:23:44;;;;;;;7.87;4.72;;;14.80;99.90;;;;;;7346285;32;20252;-55
2023/06/25 02:27:46;;;;;;;8.88;5.18;;;14.70;99.90;;;;;;7345686;32;20164;-56
2023/06/25 02:31:48;;;;;;;6.18;5.05;;;14.70;99.90;;;;;;7346988;32;20127;-56
2023/06/25 02:35:50;;;;;;;10.57;5.43;;;14.70;99.90;;;;;;7345468;32;20377;-56
2023/06/25 02:39:51;;;;;;;8.68;4.82;;;14.70;99.90;;;;;;7346216;32;20169;-56
2023/06/25 02:43:53;;;;;;;7.78;4.87;;;14.70;99.90;;;;;;7346496;32;20474;-56
2023/06/25 02:47:55;;;;;;;8.27;5.07;;;14.70;99.90;;;;;;7346148;32;20502;-55
2023/06/25 02:51:57;;;;;;;7.43;5.05;;;14.60;99.90;;;;;;7346729;32;20111;-55
2023/06/25 02:55:58;;;;;;;9.57;4.43;;;14.60;99.90;;;;;;7337417;32;20597;-56
2023/06/25 03:00:00;;;;;;;4.65;4.15;;;14.60;99.90;;;;;;7346898;32;20115;-57
2023/06/25 03:04:02;;;;;;;8.95;5.10;;;14.60;99.90;;;;;;7342891;32;20731;-57
2023/06/25 03:08:04;;;;;;;7.53;4.90;;;14.50;99.90;;;;;;7340594;32;20169;-56
2023/06/25 03:12:06;;;;;;;7.80;5.20;;;14.50;99.90;;;;;;7342519;32;20228;-56
2023/06/25 03:16:08;;;;;;;7.12;4.70;;;14.40;99.90;;;;;;7341718;32;20131;-56
2023/06/25 03:20:11;;;;;;;8.65;4.78;;;14.50;99.90;;;;;;7338732;32;20148;-55
2023/06/25 03:24:12;;;;;;;7.15;5.30;;;14.40;99.90;;;;;;7347881;32;20234;-55
2023/06/25 03:28:14;;;;;;;5.85;4.95;;;14.40;99.90;;;;;;7346768;32;20111;-56
2023/06/25 03:32:16;;;;;;;10.52;5.60;;;14.40;99.90;;;;;;7343165;32;20112;-56
2023/06/25 03:36:18;;;;;;;7.07;5.10;;;14.40;99.90;;;;;;7344106;32;20111;-56
2023/06/25 03:40:19;;;;;;;10.63;5.57;;;14.40;99.90;;;;;;7346533;32;20127;-56
2023/06/25 03:44:21;;;;;;;9.25;5.12;;;14.50;99.90;;;;;;7348252;32;20157;-56
2023/06/25 03:48:23;;;;;;;7.00;5.07;;;14.40;99.90;;;;;;7334905;32;20198;-55
2023/06/25 03:52:24;;;;;;;6.15;5.22;;;14.40;99.90;;;;;;7345088;32;20308;-56
2023/06/25 03:56:26;;;;;;;11.43;5.12;;;14.50;99.90;;;;;;7347642;32;20111;-56
2023/06/25 04:00:28;;;;;;;9.27;5.82;;;14.50;99.90;;;;;;7344145;32;20111;-56
2023/06/25 04:04:30;;;;;;;7.25;5.90;;;14.50;99.90;;;;;;7343606;32;20216;-56
2023/06/25 04:08:32;;;;;;;8.98;5.25;;;14.50;99.90;;;;;;7345155;32;20166;-56
2023/06/25 04:12:33;;;;;;;8.52;5.60;;;14.60;99.90;;;;;;7345084;32;20110;-56
2023/06/25 04:16:36;;;;;;;9.80;5.50;;;14.60;99.90;;;;;;7343260;32;20164;-55
2023/06/25 04:20:38;;;;;;;6.90;5.03;;;14.70;99.90;;;;;;7344198;32;20111;-55
2023/06/25 04:24:39;;;;;;;7.00;5.47;;;14.80;99.90;;;;;;7347372;32;20226;-56
2023/06/25 04:28:41;;;;;;;7.78;6.07;;;14.90;99.90;;;;;;7345028;32;20258;-56
2023/06/25 04:32:43;;;;;;;7.37;5.40;;;15.00;99.90;;;;;;7341960;32;20731;-56
2023/06/25 04:36:45;;;;;;;11.00;5.53;;;15.20;99.90;;;;;;7345447;32;20107;-57
2023/06/25 04:40:46;;;;;;;8.32;5.57;;;15.40;99.90;;;;;;7347336;32;20183;-57
2023/06/25 04:44:49;;;;;;;5.28;4.65;;;15.80;99.90;;;;;;7346684;32;20183;-56
2023/06/25 04:48:51;;;;;;;10.85;5.20;;;16.10;99.90;;;;;;7343241;32;20207;-57
2023/06/25 04:52:54;;;;;;;9.52;5.75;;;16.40;99.90;;;;;;7336681;32;20316;-56
2023/06/25 04:56:56;;;;;;;7.20;4.82;;;16.80;99.90;;;;;;7342522;32;20129;-57
2023/06/25 05:00:57;;;;;;;7.40;4.47;;;17.20;99.90;;;;;;7348072;32;20146;-56
2023/06/25 05:04:59;;;;;;;8.68;4.72;;;17.80;99.90;;;;;;7350755;32;20213;-56
2023/06/25 05:09:01;;;;;;;9.60;4.45;;;18.50;99.90;;;;;;7347818;32;20176;-57
2023/06/25 05:13:04;;;;;;;7.25;4.85;;;19.00;99.90;;;;;;7344452;32;20118;-57
2023/06/25 05:17:05;;;;;;;7.72;4.45;;;19.50;99.90;;;;;;7349316;32;20676;-58
2023/06/25 05:21:07;;;;;;;8.02;4.55;;;20.10;99.90;;;;;;7350687;32;20271;-56
2023/06/25 05:25:09;;;;;;;6.20;4.43;;;20.40;99.90;;;;;;7348781;32;20580;-56
2023/06/25 05:29:10;;;;;;;8.27;4.90;;;20.60;99.90;;;;;;7348773;32;20352;-56
2023/06/25 05:33:12;;;;;;;7.82;5.40;;;21.20;99.90;;;;;;7348612;32;20521;-57
2023/06/25 05:37:14;;;;;;;6.00;5.50;;;21.40;99.90;;;;;;7347069;32;20613;-58
2023/06/25 05:41:16;;;;;;;9.73;5.87;;;21.10;99.90;;;;;;7345478;32;20111;-57
2023/06/25 05:45:18;;;;;;;7.20;6.10;;;20.90;99.90;;;;;;7349386;32;21308;-57
2023/06/25 05:49:19;;;;;;;8.68;6.18;;;20.80;99.90;;;;;;7344224;32;20115;-58
2023/06/25 05:53:23;;;;;;;7.15;5.90;;;20.70;99.90;;;;;;7351919;32;20245;-57
2023/06/25 05:57:25;;;;;;;7.68;6.15;;;20.80;99.90;;;;;;7345357;32;20162;-57
2023/06/25 06:01:27;;;;;;;7.62;5.30;;;20.80;99.90;;;;;;7347445;32;20208;-58
2023/06/25 06:05:28;;;;;;;7.80;5.82;;;20.90;99.90;;;;;;7353328;32;20591;-57
2023/06/25 06:09:30;;;;;;;6.80;5.47;;;21.00;99.90;;;;;;7353311;32;20222;-57
2023/06/25 06:13:32;;;;;;;6.37;5.28;;;21.20;99.90;;;;;;7349220;32;20457;-57
2023/06/25 06:17:34;;;;;;;7.15;5.62;;;21.40;99.90;;;;;;7344662;32;20139;-57
2023/06/25 06:21:35;;;;;;;6.90;5.70;;;21.50;99.90;;;;;;7344855;32;20198;-57
2023/06/25 06:25:37;;;;;;;6.43;5.82;;;21.70;99.90;;;;;;7353193;32;20129;-57
2023/06/25 06:29:39;;;;;;;5.87;4.75;;;21.90;99.90;;;;;;7347272;32;20143;-58
2023/06/25 06:33:41;;;;;;;6.50;5.90;;;22.00;99.90;;;;;;7351795;32;20191;-57
2023/06/25 06:37:43;;;;;;;8.07;5.10;;;22.10;99.90;;;;;;7342305;32;20115;-58
2023/06/25 06:41:44;;;;;;;7.07;5.25;;;22.30;99.90;;;;;;7346744;32;20166;-57
2023/06/25 06:45:46;;;;;;;7.45;5.57;;;22.40;99.90;;;;;;7351259;32;20112;-58
2023/06/25 06:49:48;;;;;;;6.00;5.40;;;22.50;99.90;;;;;;7357434;32;20130;-58
2023/06/25 06:53:50;;;;;;;6.10;5.37;;;22.60;99.90;;;;;;7350575;32;20248;-57
2023/06/25 06:57:51;;;;;;;7.97;5.57;;;22.70;99.90;;;;;;7344697;32;20209;-58
2023/06/25 07:01:53;;;;;;;6.43;5.40;;;22.90;99.90;;;;;;7344733;32;20168;-59
2023/06/25 07:05:55;;;;;;;8.20;5.28;;;23.00;99.90;;;;;;7345384;32;20227;-61
2023/06/25 07:09:57;;;;;;;6.65;5.95;;;23.20;99.90;;;;;;7338900;32;20224;-58
2023/06/25 07:13:58;;;;;;;6.95;5.22;;;23.30;99.90;;;;;;7347494;32;20166;-58
2023/06/25 07:18:00;;;;;;;6.75;4.78;;;23.50;99.90;;;;;;7347332;32;20115;-55
2023/06/25 07:22:02;;;;;;;6.43;5.30;;;23.60;99.90;;;;;;7343827;32;20323;-55
2023/06/25 07:26:04;;;;;;;5.57;4.85;;;23.80;99.90;;;;;;7346172;32;20194;-54
2023/06/25 07:30:06;;;;;;;5.10;4.60;;;23.80;99.90;;;;;;7343056;32;20410;-55
2023/06/25 07:34:08;;;;;;;5.95;5.10;;;23.90;99.90;;;;;;7347347;32;20449;-55
2023/06/25 07:38:10;;;;;;;7.78;5.43;;;23.90;99.90;;;;;;7346886;32;20484;-55
2023/06/25 07:42:11;;;;;;;6.78;5.20;;;24.00;99.90;;;;;;7345943;32;20202;-55
2023/06/25 07:46:13;;;;;;;6.80;5.37;;;24.10;99.90;;;;;;7349483;32;20115;-55
2023/06/25 07:50:15;;;;;;;7.50;5.43;;;24.40;99.90;;;;;;7346373;32;20436;-55
2023/06/25 07:54:17;;;;;;;5.50;4.68;;;24.50;99.90;;;;;;7350314;32;20202;-55
2023/06/25 07:58:19;;;;;;;6.70;5.47;;;24.60;99.90;;;;;;7332028;32;20503;-55
2023/06/25 08:02:21;;;;;;;7.60;4.40;;;24.80;99.90;;;;;;7346810;32;20630;-54
2023/06/25 08:06:23;;;;;;;6.40;4.97;;;25.10;99.90;;;;;;7344762;32;20567;-55
2023/06/25 08:10:25;;;;;;;5.35;4.85;;;25.30;99.90;;;;;;7349067;32;20099;-56
2023/06/25 08:14:27;;;;;;;6.47;4.80;;;25.50;99.90;;;;;;7347790;32;20170;-55
2023/06/25 08:18:29;;;;;;;7.82;5.32;;;25.80;99.90;;;;;;7349105;32;20126;-54
2023/06/25 08:22:30;;;;;;;5.28;4.72;;;26.10;99.90;;;;;;7338091;32;20130;-54
2023/06/25 08:26:32;;;;;;;7.35;4.65;;;26.40;99.90;;;;;;7347367;32;20384;-55
2023/06/25 08:30:34;;;;;;;6.37;4.47;;;26.60;99.90;;;;;;7338794;32;20103;-55
2023/06/25 08:34:37;;;;;;;6.57;4.30;;;26.80;99.90;;;;;;7344584;32;20357;-56
2023/06/25 08:38:39;;;;;;;5.30;4.40;;;27.00;99.90;;;;;;7347170;32;20418;-54
2023/06/25 08:42:44;;;;;;;6.40;4.55;;;27.20;99.90;;;;;;7350643;32;20163;-57
2023/06/25 08:46:49;;;;;;;5.62;4.22;;;27.50;99.90;;;;;;7352590;32;20111;-58
2023/06/25 08:50:56;;;;;;;4.53;4.12;;;27.80;99.90;;;;;;7349823;32;20640;-58
2023/06/25 08:54:58;;;;;;;6.90;4.85;;;28.20;99.90;;;;;;7349006;32;20818;-57
2023/06/25 08:59:00;;;;;;;5.28;4.75;;;28.50;99.90;;;;;;7352643;32;20263;-58
2023/06/25 09:03:01;;;;;;;6.47;4.50;;;28.80;99.90;;;;;;7350546;32;20255;-58
2023/06/25 09:07:08;;;;;;;4.78;4.22;;;29.10;99.90;;;;;;7334442;32;20509;-57
2023/06/25 09:11:10;;;;;;;4.60;4.20;;;29.30;99.90;;;;;;7350604;32;20557;-57
2023/06/25 09:15:12;;;;;;;4.87;4.40;;;29.70;99.90;;;;;;7355391;32;20206;-57
2023/06/25 09:19:19;;;;;;;4.70;4.30;;;30.20;99.90;;;;;;7357249;32;20256;-57
2023/06/25 09:23:21;;;;;;;;;;;30.40;99.20;;;;;;7352319;32;20605;-57
2023/06/25 09:27:23;;;;;;;5.70;4.20;;;30.80;96.10;;;;;;7356969;32;20006;-57
2023/06/25 09:31:25;;;;;;;4.80;4.12;;;30.90;95.10;;;;;;7349112;32;20261;-57
2023/06/25 09:35:29;;;;;;;4.60;4.20;;;31.00;92.90;;;;;;7351103;32;20175;-57
2023/06/25 09:39:31;;;;;;;7.25;4.03;;;31.40;97.00;;;;;;7351136;32;20439;-57
2023/06/25 09:43:33;;;;;;;8.00;4.82;;;31.60;94.00;;;;;;7351369;32;20111;-57
2023/06/25 09:47:40;;;;;;;5.93;4.00;;;31.60;90.00;;;;;;7340961;32;20168;-58
2023/06/25 09:52:11;;;;;;;6.25;4.25;;;31.70;89.10;;;;;;7329811;32;20217;-57
2023/06/25 09:56:14;;;;;;;5.87;4.20;;;31.90;82.80;;;;;;7345781;32;20262;-57
2023/06/25 10:00:17;;;;;;;5.57;3.95;;;32.30;92.10;;;;;;7347157;32;20240;-59
2023/06/25 10:04:20;;;;;;;4.75;3.95;;;32.00;85.10;;;;;;7349522;32;20184;-58
2023/06/25 10:08:22;;;;;;;5.75;3.95;;;32.00;81.60;;;;;;7350501;32;20185;-58
2023/06/25 10:12:24;;;;;;;5.60;3.97;;;31.80;79.00;;;;;;7347101;32;20606;-58
2023/06/25 10:16:31;;;;;;;4.43;4.03;;;32.30;85.50;;;;;;7347700;32;20256;-58
2023/06/25 10:20:36;;;;;;;4.45;3.95;;;32.30;80.00;;;;;;7345594;32;20116;-58
2023/06/25 10:24:40;;;;;;;4.50;4.10;;;32.30;74.80;;;;;;7350226;32;20107;-58
2023/06/25 10:28:50;;;;;;;4.37;3.83;;;32.50;82.40;;;;;;7345654;32;20133;-58
2023/06/25 10:33:00;;;;;;;5.10;4.60;;;32.50;77.70;;;;;;7352459;32;20214;-57
2023/06/25 10:37:04;;;;;;;4.32;3.92;;;32.70;80.50;;;;;;7347840;32;20330;-58
2023/06/25 10:41:06;;;;;;;5.78;4.15;;;32.60;78.20;;;;;;7354171;32;20222;-58
2023/06/25 10:45:08;;;;;;;4.40;4.00;;;32.80;74.80;;;;;;7350239;32;20195;-58
2023/06/25 10:49:19;;;;;;;6.03;3.90;;;32.80;80.10;;;;;;7350772;32;20774;-58
2023/06/25 10:53:23;;;;;;;4.43;4.03;;;32.50;77.50;;;;;;7347480;32;20153;-58
2023/06/25 10:57:27;;;;;;;5.00;3.95;;;32.50;75.30;;;;;;7346867;32;20198;-58
2023/06/25 11:01:34;;;;;;;8.38;4.37;;;32.50;79.20;;;;;;7355209;32;20545;-58
2023/06/25 11:05:41;;;;;;;5.22;4.25;;;32.20;83.80;;;;;;7347659;32;20138;-58
2023/06/25 11:09:44;;;;;;;4.97;4.45;;;32.30;79.60;;;;;;7343244;32;20158;-58
2023/06/25 11:13:47;;;;;;;6.32;4.32;;;32.10;70.20;;;;;;7346973;32;20156;-58
2023/06/25 11:17:54;;;;;;;4.87;4.15;;;32.00;72.40;;;;;;7347186;32;20499;-58
2023/06/25 11:21:56;;;;;;;4.35;3.95;;;32.00;75.30;;;;;;7344251;32;20178;-59
2023/06/25 11:26:03;;;;;;;6.93;3.78;;;32.00;76.80;;;;;;7347766;32;20108;-59
2023/06/25 11:30:05;;;;;;;5.85;3.80;;;32.20;79.50;;;;;;7345339;32;20115;-59
2023/06/25 11:34:22;;;;;;;7.60;4.22;;;32.30;75.70;;;;;;7346739;32;20164;-56
2023/06/25 11:38:32;;;;;;;;;;;32.50;81.00;;;;;;7342710;32;20644;-57
2023/06/25 11:42:39;;;;;;;5.57;4.12;;;32.40;75.10;;;;;;7351697;32;20047;-58
2023/06/25 11:46:41;;;;;;;4.65;4.03;;;32.60;77.00;;;;;;7341653;32;20842;-57
2023/06/25 11:50:44;;;;;;;5.37;3.83;;;32.50;78.50;;;;;;7342099;32;20842;-57
2023/06/25 11:54:46;;;;;;;4.30;3.90;;;32.60;73.90;;;;;;7349564;32;20268;-57
2023/06/25 11:58:48;;;;;;;6.28;4.20;;;32.90;69.20;;;;;;7349916;32;20131;-57
2023/06/25 12:02:50;;;;;;;4.28;3.50;;;32.50;67.50;;;;;;7323379;32;20302;-57
2023/06/25 12:06:51;;;;;;;4.53;4.07;;;32.30;70.10;;;;;;7345794;32;20134;-56
2023/06/25 12:10:53;;;;;;;4.45;4.05;;;32.50;71.80;;;;;;7347685;32;20330;-56
2023/06/25 12:14:55;;;;;;;3.72;3.35;;;33.00;71.90;;;;;;7349488;32;20146;-57
2023/06/25 12:18:57;;;;;;;5.05;3.90;;;33.40;66.10;;;;;;7344607;32;20183;-55
2023/06/25 12:22:58;;;;;;;5.12;3.42;;;33.50;68.10;;;;;;7347473;32;20111;-57
2023/06/25 12:27:00;;;;;;;7.43;6.37;;;33.90;66.90;;;;;;7344279;32;20116;-57
2023/06/25 12:31:02;;;;;;;4.57;3.35;;;34.60;65.30;;;;;;7344831;32;20785;-57
2023/06/25 12:35:04;;;;;;;6.35;4.07;;;34.40;69.00;;;;;;7348202;32;20530;-57
2023/06/25 12:39:06;;;;;;;5.03;3.53;;;34.40;65.10;;;;;;7349260;32;20155;-57
2023/06/25 12:43:08;;;;;;;4.37;3.80;;;34.50;63.70;;;;;;7342516;32;20139;-57
2023/06/25 12:47:09;;;;;;;4.80;3.83;;;34.90;66.00;;;;;;7347920;32;20517;-57
2023/06/25 12:51:11;;;;;;;7.03;3.92;;;35.00;63.70;;;;;;7350873;32;20115;-57
2023/06/25 12:55:13;;;;;;;4.47;3.40;;;35.10;66.60;;;;;;7350031;32;20685;-57
2023/06/25 12:59:15;;;;;;;3.58;3.25;;;34.70;58.80;;;;;;7348895;32;20564;-58
2023/06/25 13:03:18;;;;;;;4.62;3.40;;;34.70;63.70;;;;;;7350108;32;22063;-57
2023/06/25 13:07:20;;;;;;;3.47;3.15;;;34.80;62.90;;;;;;7347883;32;20435;-57
2023/06/25 13:11:22;;;;;;;3.72;3.37;;;34.70;61.70;;;;;;7343267;32;20111;-58
2023/06/25 13:15:24;;;;;;;4.68;3.20;;;34.70;62.70;;;;;;7349111;32;20213;-58
2023/06/25 13:19:26;;;;;;;3.33;3.03;;;34.90;65.60;;;;;;7342159;32;20138;-58
2023/06/25 13:23:28;;;;;;;4.62;3.05;;;34.00;60.80;;;;;;7349585;32;20122;-58
2023/06/25 13:27:30;;;;;;;5.12;3.62;;;34.00;64.40;;;;;;7357235;32;20102;-58
2023/06/25 13:31:31;;;;;;;4.55;3.72;;;34.20;63.00;;;;;;7355096;32;20167;-57
2023/06/25 13:35:33;;;;;;;6.45;3.70;;;33.90;61.30;;;;;;7354687;32;20265;-58
2023/06/25 13:39:37;;;;;;;3.65;3.35;;;33.70;59.90;;;;;;7349068;32;20253;-58
2023/06/25 13:43:39;;;;;;;5.20;3.47;;;33.50;59.10;;;;;;7353590;32;20277;-57
2023/06/25 13:47:41;;;;;;;4.18;3.78;;;32.80;64.00;;;;;;7335783;32;20148;-57
2023/06/25 13:51:43;;;;;;;4.85;4.03;;;33.40;67.70;;;;;;7344784;32;20519;-57
2023/06/25 13:55:45;;;;;;;4.30;3.60;;;33.60;65.60;;;;;;7347896;32;20588;-58
2023/06/25 13:59:47;;;;;;;5.82;3.53;;;33.70;59.00;;;;;;7353091;32;20237;-58
2023/06/25 14:03:49;;;;;;;4.10;3.50;;;33.80;66.40;;;;;;7339883;32;20249;-59
2023/06/25 14:07:51;;;;;;;4.40;4.00;;;33.60;65.50;;;;;;7342098;32;20259;-57
2023/06/25 14:11:53;;;;;;;3.95;3.60;;;33.80;62.20;;;;;;7355429;32;20115;-58
2023/06/25 14:15:54;;;;;;;4.78;3.72;;;33.70;60.00;;;;;;7354233;32;20130;-57
2023/06/25 14:20:15;;;;;;;4.05;3.60;;;33.60;58.30;;;;;;7350504;32;20104;-58
2023/06/25 14:24:18;;;;;;;3.65;3.35;;;33.50;59.40;;;;;;7348513;32;20145;-58
2023/06/25 14:28:20;;;;;;;3.80;3.40;;;34.10;64.80;;;;;;7339249;32;20561;-58
2023/06/25 14:32:22;;;;;;;4.05;3.65;;;34.40;59.40;;;;;;7352646;32;20142;-59
2023/06/25 14:36:23;;;;;;;3.80;3.50;;;34.00;57.70;;;;;;7345682;32;20592;-58
2023/06/25 14:40:25;;;;;;;3.83;3.53;;;33.90;57.60;;;;;;7346255;32;20111;-58
2023/06/25 14:44:27;;;;;;;4.25;3.35;;;33.50;59.80;;;;;;7350739;32;20156;-58
2023/06/25 14:48:29;;;;;;;4.50;3.55;;;33.50;62.70;;;;;;7338014;32;20130;-58
2023/06/25 14:52:30;;;;;;;6.22;3.72;;;33.60;59.70;;;;;;7334865;32;20225;-58
2023/06/25 14:56:32;;;;;;;5.03;3.28;;;33.40;59.90;;;;;;7337820;32;20534;-58
2023/06/25 15:00:34;;;;;;;4.03;3.62;;;33.10;63.30;;;;;;7340638;32;20261;-58
2023/06/25 15:04:36;;;;;;;6.20;3.85;;;33.40;59.40;;;;;;7345193;32;20232;-59
2023/06/25 15:08:38;;;;;;;4.20;3.80;;;33.90;59.10;;;;;;7340153;32;20222;-58
2023/06/25 15:12:41;;;;;;;4.90;4.20;;;33.80;58.90;;;;;;7349361;32;20116;-57
2023/06/25 15:16:43;;;;;;;3.50;3.20;;;34.20;64.50;;;;;;7347466;32;20162;-57
2023/06/25 15:20:45;;;;;;;4.18;3.12;;;34.40;60.30;;;;;;7349844;32;20269;-58
2023/06/25 15:24:46;;;;;;;5.00;3.22;;;34.30;58.10;;;;;;7345890;32;20127;-57
2023/06/25 15:28:48;;;;;;;3.33;3.03;;;33.20;55.40;;;;;;7350793;32;20108;-58
2023/06/25 15:32:50;;;;;;;4.07;3.67;;;32.40;57.70;;;;;;7348616;32;20126;-57
2023/06/25 15:36:52;;;;;;;4.25;3.50;;;31.80;58.80;;;;;;7351661;32;20103;-57
2023/06/25 15:40:55;;;;;;;5.60;3.60;;;31.30;58.50;;;;;;7348145;32;20116;-57
2023/06/25 15:44:57;;;;;;;5.30;4.18;;;30.90;59.80;;;;;;7351869;32;20131;-57
2023/06/25 15:49:02;;;;;;;4.07;3.55;;;30.90;65.30;;;;;;7352699;32;20178;-57
2023/06/25 15:53:05;;;;;;;4.90;3.95;;;30.50;63.70;;;;;;7351889;32;20844;-57
2023/06/25 15:57:06;;;;;;;4.03;3.47;;;30.70;64.80;;;;;;7340007;32;20556;-57
2023/06/25 16:01:08;;;;;;;5.43;3.90;;;30.60;63.80;;;;;;7348433;32;20131;-57
2023/06/25 16:05:10;;;;;;;4.30;3.87;;;30.30;67.70;;;;;;7352507;32;20179;-57
2023/06/25 16:09:12;;;;;;;5.15;3.85;;;30.20;70.60;;;;;;7352358;32;20111;-57
2023/06/25 16:13:13;;;;;;;4.62;4.22;;;30.00;70.30;;;;;;7354498;32;20697;-57
2023/06/25 16:17:15;;;;;;;4.68;4.22;;;29.80;68.80;;;;;;7336617;32;20107;-58
2023/06/25 16:21:17;;;;;;;4.62;4.20;;;29.60;70.30;;;;;;7347097;32;20137;-57
2023/06/25 16:25:18;;;;;;;5.05;4.22;;;29.50;72.70;;;;;;7352540;32;20103;-58
2023/06/25 16:29:20;;;;;;;5.80;4.57;;;29.20;71.20;;;;;;7353931;32;20164;-58
2023/06/25 16:33:22;;;;;;;4.25;3.85;;;29.10;71.10;;;;;;7342261;32;20107;-58
2023/06/25 16:37:24;;;;;;;4.60;3.80;;;29.50;70.20;;;;;;7349550;32;20254;-58
2023/06/25 16:41:25;;;;;;;5.18;4.00;;;29.50;69.20;;;;;;7349107;32;20243;-58
2023/06/25 16:45:27;;;;;;;4.35;3.78;;;29.50;69.20;;;;;;7349150;32;20305;-58
2023/06/25 16:49:29;;;;;;;5.28;4.65;;;29.50;71.70;;;;;;7351638;32;20574;-58
2023/06/25 16:53:31;;;;;;;5.57;4.20;;;29.30;71.10;;;;;;7341847;32;20226;-58
2023/06/25 16:57:32;;;;;;;4.45;3.95;;;29.30;71.80;;;;;;7353637;32;20246;-58
2023/06/25 17:01:34;;;;;;;4.50;4.03;;;29.20;69.90;;;;;;7350507;32;20157;-57
2023/06/25 17:05:36;;;;;;;4.80;4.30;;;29.00;70.70;;;;;;7347721;32;20233;-57
2023/06/25 17:09:38;;;;;;;4.87;4.05;;;29.00;74.20;;;;;;7350730;32;20104;-58
2023/06/25 17:13:40;;;;;;;5.75;4.37;;;29.00;77.40;;;;;;7343290;32;20141;-58
2023/06/25 17:17:42;;;;;;;4.75;4.00;;;29.00;77.70;;;;;;7355195;32;20112;-58
2023/06/25 17:21:43;;;;;;;5.15;4.18;;;29.00;76.10;;;;;;7346299;32;20469;-57
2023/06/25 17:25:45;;;;;;;4.70;4.25;;;29.00;74.90;;;;;;7350758;32;20135;-57
2023/06/25 17:29:47;;;;;;;6.30;4.20;;;28.70;75.70;;;;;;7354735;32;20111;-57
2023/06/25 17:33:49;;;;;;;5.22;3.97;;;28.80;73.40;;;;;;7347635;32;20136;-57
2023/06/25 17:37:53;;;;;;;4.20;3.58;;;28.80;76.30;;;;;;7345053;32;20929;-58
2023/06/25 17:41:55;;;;;;;4.07;3.65;;;28.60;76.90;;;;;;7350733;32;20189;-57
2023/06/25 17:45:56;;;;;;;4.47;4.07;;;28.60;77.30;;;;;;7346160;32;20597;-55
2023/06/25 17:49:58;;;;;;;5.10;4.60;;;28.60;79.40;;;;;;7353703;32;20122;-55
2023/06/25 17:54:00;;;;;;;4.57;3.72;;;28.40;77.40;;;;;;7350446;32;20261;-58
2023/06/25 17:58:02;;;;;;;4.60;4.20;;;28.30;78.70;;;;;;7341054;32;20112;-57
2023/06/25 18:02:04;;;;;;;9.65;3.97;;;28.30;78.20;;;;;;7350872;32;20257;-57
2023/06/25 18:06:06;;;;;;;4.65;4.25;;;28.10;78.60;;;;;;7339645;32;20160;-57
2023/06/25 18:10:08;;;;;;;4.30;3.90;;;28.00;80.50;;;;;;7350066;32;20499;-57
2023/06/25 18:14:10;;;;;;;7.90;4.10;;;28.00;78.50;;;;;;7349330;32;20237;-55
2023/06/25 18:18:17;;;;;;;5.18;4.00;;;28.00;80.50;;;;;;7348529;32;20222;-55
2023/06/25 18:22:19;;;;;;;5.37;4.45;;;28.10;84.80;;;;;;7340933;32;20108;-56
2023/06/25 18:26:20;;;;;;;5.90;4.28;;;27.90;84.70;;;;;;7344760;32;20171;-57
2023/06/25 18:30:22;;;;;;;4.87;3.90;;;27.80;81.90;;;;;;7338850;32;20178;-57
2023/06/25 18:34:24;;;;;;;6.47;5.47;;;27.70;85.70;;;;;;7336744;32;20278;-57
2023/06/25 18:38:26;;;;;;;5.95;5.28;;;27.50;85.30;;;;;;7340010;32;20533;-57
2023/06/25 18:42:28;;;;;;;6.47;5.43;;;27.40;87.20;;;;;;7340154;32;20240;-57
2023/06/25 18:46:29;;;;;;;5.05;4.30;;;27.30;86.60;;;;;;7342026;32;20206;-57
2023/06/25 18:50:31;;;;;;;6.00;5.40;;;27.10;90.00;;;;;;7342546;32;20142;-57
2023/06/25 18:54:33;;;;;;;7.03;5.72;;;27.10;90.90;;;;;;7339941;32;20115;-57
2023/06/25 18:58:34;;;;;;;6.07;4.43;;;26.90;92.40;;;;;;7336599;32;20126;-57
2023/06/25 19:02:36;;;;;;;6.37;4.20;;;26.70;94.80;;;;;;7337179;32;20111;-56
2023/06/25 19:06:39;;;;;;;4.82;4.25;;;26.60;99.90;;;;;;7342028;32;20651;-56
2023/06/25 19:10:42;;;;;;;8.40;4.28;;;26.40;99.90;;;;;;7345127;32;20107;-56
2023/06/25 19:14:44;;;;;;;7.97;4.72;;;26.10;99.90;;;;;;7339873;32;20099;-57
2023/06/25 19:18:46;;;;;;;8.30;5.18;;;25.80;99.90;;;;;;7340801;32;20103;-57
2023/06/25 19:22:48;;;;;;;9.10;4.82;;;25.70;99.90;;;;;;7342728;32;20142;-56
2023/06/25 19:27:10;;;;;;;10.30;4.82;;;25.50;99.90;;;;;;7336908;32;20175;-56
2023/06/25 19:31:11;;;;;;;10.90;5.40;;;25.30;99.90;;;;;;7328363;32;20290;-56
2023/06/25 19:35:13;;;;;;;8.63;4.93;;;25.00;99.90;;;;;;7338124;32;20326;-57
2023/06/25 19:39:15;;;;;;;8.30;5.15;;;24.70;99.90;;;;;;7338351;32;20691;-58
2023/06/25 19:43:17;;;;;;;10.52;5.30;;;24.40;99.90;;;;;;7341306;32;20134;-57
2023/06/25 19:47:20;;;;;;;11.02;5.22;;;24.30;99.90;;;;;;7348558;32;20237;-56
2023/06/25 19:51:22;;;;;;;8.98;5.28;;;24.00;99.90;;;;;;7339546;32;20544;-57
2023/06/25 19:55:24;;;;;;;7.12;5.10;;;23.70;99.90;;;;;;7345957;32;20139;-57
2023/06/25 19:59:26;;;;;;;9.18;5.35;;;23.60;99.90;;;;;;7346216;32;20119;-57
2023/06/25 20:03:28;;;;;;;10.10;4.95;;;23.30;99.90;;;;;;7346048;32;20170;-57
2023/06/25 20:07:30;;;;;;;9.10;5.50;;;23.10;99.90;;;;;;7346814;32;20510;-55
2023/06/25 20:11:33;;;;;;;9.02;5.12;;;23.00;99.90;;;;;;7345608;32;20127;-56
2023/06/25 20:15:35;;;;;;;11.23;5.87;;;22.70;99.90;;;;;;7337582;32;20245;-55
2023/06/25 20:19:37;;;;;;;9.80;5.53;;;22.40;99.90;;;;;;7344352;32;20844;-55
2023/06/25 20:23:39;;;;;;;11.98;5.50;;;22.30;99.90;;;;;;7348370;32;20116;-55
2023/06/25 20:27:40;;;;;;;7.47;5.30;;;22.10;99.90;;;;;;7346804;32;20569;-55
2023/06/25 20:31:42;;;;;;;7.85;5.40;;;22.10;99.90;;;;;;7342001;32;20138;-55
2023/06/25 20:35:44;;;;;;;6.62;5.78;;;21.70;99.90;;;;;;7349360;32;20121;-55
2023/06/25 20:39:46;;;;;;;7.72;5.57;;;21.60;99.90;;;;;;7344235;32;20123;-56
2023/06/25 20:43:47;;;;;;;10.07;5.43;;;21.50;99.90;;;;;;7348673;32;20559;-55
2023/06/25 20:47:53;;;;;;;10.57;6.07;;;21.40;99.90;;;;;;7348114;32;20134;-56
2023/06/25 20:51:56;;;;;;;9.00;5.72;;;21.20;99.90;;;;;;7349758;32;20680;-56
2023/06/25 20:55:58;;;;;;;8.38;5.43;;;21.10;99.90;;;;;;7348117;32;20141;-55
2023/06/25 21:00:00;;;;;;;11.80;6.05;;;21.00;99.90;;;;;;7351241;32;20402;-55